Time;durP1;ratioP1;P1;durP2;ratioP2;P2;SDS_P1;SDS_P2;PMS_P1;PMS_P2;Temp;Humidity;BMP_temperature;BMP_pressure;BME280_temperature;BME280_humidity;BME280_pressure;Samples;Min_cycle;Max_cycle;Signal;HPM_P1;HPM_P2
2022/12/30 00:01:53;;;;;;;3.38;2.47;;;-1.10;99.90;;;;;;4783195;30;20210;-72
2022/12/30 00:04:20;;;;;;;4.68;3.10;;;-1.10;99.90;;;;;;4781431;29;20063;-70
2022/12/30 00:06:48;;;;;;;5.57;3.10;;;-1.10;99.90;;;;;;4784095;30;20055;-70
2022/12/30 00:09:15;;;;;;;7.20;3.45;;;-1.10;99.90;;;;;;4782290;30;20104;-70
2022/12/30 00:11:43;;;;;;;9.15;3.40;;;-1.10;99.90;;;;;;4784299;29;20059;-70
2022/12/30 00:33:56;;;;;;;7.60;3.58;;;-1.10;99.90;;;;;;4783900;29;20150;-71
2022/12/30 00:36:25;;;;;;;9.13;4.00;;;-1.00;99.90;;;;;;4781712;29;20417;-71
2022/12/30 00:38:54;;;;;;;5.70;3.30;;;-1.00;99.90;;;;;;4783799;29;20595;-71
2022/12/30 00:44:07;;;;;;;4.75;3.05;;;-0.90;99.90;;;;;;4771668;29;20055;-70
2022/12/30 00:46:35;;;;;;;6.60;3.65;;;-0.90;99.90;;;;;;4782997;29;20051;-70
2022/12/30 00:57:18;;;;;;;7.55;4.10;;;-0.90;99.90;;;;;;4783333;29;20063;-71
2022/12/30 00:59:46;;;;;;;5.07;3.50;;;-0.80;99.90;;;;;;4782884;29;20059;-71
2022/12/30 01:02:13;;;;;;;8.45;4.20;;;-0.80;99.90;;;;;;4784355;29;20058;-70
2022/12/30 01:04:42;;;;;;;6.57;4.32;;;-0.80;99.90;;;;;;4781590;29;20058;-70
2022/12/30 01:07:09;;;;;;;9.48;4.05;;;-0.80;99.90;;;;;;4783735;29;20055;-70
2022/12/30 01:09:37;;;;;;;5.07;3.40;;;-0.80;99.90;;;;;;4790143;29;20104;-70
2022/12/30 01:12:09;;;;;;;7.25;4.10;;;-0.80;99.90;;;;;;4782712;29;20059;-70
2022/12/30 01:14:39;;;;;;;7.90;3.90;;;-0.90;99.90;;;;;;4782156;29;20047;-70
2022/12/30 01:17:11;;;;;;;4.70;3.63;;;-0.90;99.90;;;;;;4782177;30;20086;-70
2022/12/30 01:19:40;;;;;;;8.02;4.20;;;-0.90;99.90;;;;;;4785002;29;20055;-70
2022/12/30 01:22:09;;;;;;;8.20;4.10;;;-0.90;99.90;;;;;;4798420;29;20055;-70
2022/12/30 01:24:36;;;;;;;4.45;3.50;;;-0.90;99.90;;;;;;4781830;29;20051;-70
2022/12/30 01:27:05;;;;;;;6.68;3.10;;;-0.90;99.90;;;;;;4782252;29;20071;-71
2022/12/30 01:29:36;;;;;;;7.85;3.40;;;-0.90;99.90;;;;;;4786974;29;20055;-70
2022/12/30 01:32:05;;;;;;;6.25;3.13;;;-0.90;99.90;;;;;;4787267;30;20058;-71
2022/12/30 01:34:33;;;;;;;5.75;3.55;;;-1.00;99.90;;;;;;4785833;29;20078;-71
2022/12/30 01:37:01;;;;;;;8.98;3.90;;;-0.90;99.90;;;;;;4786864;30;20051;-71
2022/12/30 01:39:29;;;;;;;3.42;2.65;;;-0.90;99.90;;;;;;4788240;29;20062;-71
2022/12/30 01:41:57;;;;;;;6.60;3.20;;;-0.80;99.90;;;;;;4780904;30;20429;-71
2022/12/30 01:45:00;;;;;;;4.22;2.85;;;-0.80;99.90;;;;;;4783222;29;20089;-71
2022/12/30 01:47:40;;;;;;;5.22;3.10;;;-0.80;99.90;;;;;;4743040;30;20211;-71
2022/12/30 01:50:19;;;;;;;5.35;2.80;;;-0.80;99.90;;;;;;4783738;29;20086;-70
2022/12/30 01:52:53;;;;;;;5.53;2.58;;;-0.80;99.90;;;;;;4782923;29;20112;-71
2022/12/30 01:55:29;;;;;;;5.03;2.88;;;-0.80;99.90;;;;;;4786023;30;20065;-71
2022/12/30 01:57:57;;;;;;;4.22;2.75;;;-0.80;99.90;;;;;;4787353;29;20066;-71
2022/12/30 02:00:25;;;;;;;6.95;3.25;;;-0.80;99.90;;;;;;4785152;29;20589;-71
2022/12/30 02:02:54;;;;;;;4.55;2.53;;;-0.80;99.90;;;;;;4775118;30;20557;-71
2022/12/30 02:05:25;;;;;;;4.03;3.10;;;-0.80;99.90;;;;;;4785064;30;20055;-71
2022/12/30 02:08:03;;;;;;;3.75;2.60;;;-0.70;99.90;;;;;;4786936;29;20696;-71
2022/12/30 02:10:32;;;;;;;3.60;2.60;;;-0.70;99.90;;;;;;4798963;29;20513;-71
2022/12/30 02:12:59;;;;;;;3.78;2.92;;;-0.70;99.90;;;;;;4785193;29;20062;-70
2022/12/30 02:16:15;;;;;;;5.88;2.60;;;-0.70;99.90;;;;;;4781764;30;20056;-71
2022/12/30 02:19:02;;;;;;;4.60;2.70;;;-0.70;99.90;;;;;;4780830;30;20054;-71
2022/12/30 02:21:57;;;;;;;3.72;2.17;;;-0.70;99.90;;;;;;4786084;30;20067;-71
2022/12/30 02:25:15;;;;;;;4.20;2.97;;;-0.70;99.90;;;;;;4785601;29;20116;-71
2022/12/30 02:28:11;;;;;;;4.80;2.95;;;-0.70;99.90;;;;;;4747707;30;20064;-71
2022/12/30 02:31:14;;;;;;;3.17;2.50;;;-0.70;99.90;;;;;;4747940;30;20112;-70
2022/12/30 02:33:48;;;;;;;6.95;3.08;;;-0.60;99.90;;;;;;4783596;29;20515;-70
2022/12/30 02:36:28;;;;;;;5.97;2.78;;;-0.70;99.90;;;;;;4785066;29;20539;-70
2022/12/30 02:39:05;;;;;;;3.17;2.53;;;-0.70;99.90;;;;;;4783869;29;20091;-70
2022/12/30 02:44:38;;;;;;;6.97;2.88;;;-0.70;99.90;;;;;;4786740;29;20145;-70
2022/12/30 02:47:14;;;;;;;3.78;2.95;;;-0.70;99.90;;;;;;4784540;29;20051;-69
2022/12/30 02:52:14;;;;;;;6.22;3.10;;;-0.70;99.90;;;;;;4784045;29;20060;-70
2022/12/30 02:52:35;;;;;;;3.70;2.75;;;-0.70;99.90;;;;;;4785948;30;20048;-71
2022/12/30 02:55:03;;;;;;;4.03;3.40;;;-0.60;99.90;;;;;;4785707;29;20117;-71
2022/12/30 02:57:33;;;;;;;4.30;2.83;;;-0.60;99.90;;;;;;4782551;29;20648;-72
2022/12/30 03:03:57;;;;;;;3.10;2.42;;;-0.70;99.90;;;;;;4786002;29;20051;-71
2022/12/30 03:06:59;;;;;;;3.10;2.63;;;-0.70;99.90;;;;;;4783706;29;20112;-70
2022/12/30 03:11:12;;;;;;;5.00;2.90;;;-0.60;99.90;;;;;;4784298;29;20061;-70
2022/12/30 03:12:33;;;;;;;;;;;-0.60;99.90;;;;;;4774114;30;20134;-70
2022/12/30 03:15:06;;;;;;;3.22;2.50;;;-0.60;99.90;;;;;;4780811;30;20383;-70
2022/12/30 03:17:38;;;;;;;3.58;2.90;;;-0.60;99.90;;;;;;4783810;30;20066;-70
2022/12/30 03:20:11;;;;;;;4.40;2.80;;;-0.60;99.90;;;;;;4786458;29;20120;-71
2022/12/30 03:28:16;;;;;;;5.03;3.13;;;-0.60;99.90;;;;;;4766919;30;20445;-70
2022/12/30 03:30:47;;;;;;;4.35;2.80;;;-0.70;99.90;;;;;;4785956;29;20417;-71
2022/12/30 03:33:17;;;;;;;3.65;3.05;;;-0.60;99.90;;;;;;4784151;29;20732;-70
2022/12/30 03:35:54;;;;;;;4.15;2.65;;;-0.60;99.90;;;;;;4783326;30;20055;-71
2022/12/30 03:38:29;;;;;;;4.65;2.55;;;-0.60;99.90;;;;;;4774216;30;20051;-68
2022/12/30 03:41:00;;;;;;;5.03;2.70;;;-0.60;99.90;;;;;;4786248;29;20059;-67
2022/12/30 03:43:29;;;;;;;3.20;2.90;;;-0.60;99.90;;;;;;4783734;29;20063;-69
2022/12/30 03:45:56;;;;;;;4.90;2.58;;;-0.60;99.90;;;;;;4782436;29;20528;-68
2022/12/30 03:48:24;;;;;;;2.90;2.60;;;-0.50;99.90;;;;;;4784147;30;20055;-68
2022/12/30 03:50:52;;;;;;;3.80;2.95;;;-0.50;99.90;;;;;;4785437;29;20055;-68
2022/12/30 03:53:20;;;;;;;3.67;2.65;;;-0.50;99.90;;;;;;4793224;29;20138;-68
2022/12/30 03:55:47;;;;;;;5.85;2.65;;;-0.50;99.90;;;;;;4777228;30;20048;-67
2022/12/30 03:58:15;;;;;;;3.40;2.58;;;-0.50;99.90;;;;;;4786669;29;20061;-66
2022/12/30 04:00:42;;;;;;;3.28;2.65;;;-0.50;99.90;;;;;;4783451;29;20513;-66
2022/12/30 04:03:10;;;;;;;4.10;3.17;;;-0.40;99.90;;;;;;4784644;29;20083;-67
2022/12/30 04:05:37;;;;;;;4.90;3.17;;;-0.40;99.90;;;;;;4782163;29;20123;-66
2022/12/30 04:08:06;;;;;;;4.13;3.00;;;-0.40;99.90;;;;;;4784248;29;20416;-67
2022/12/30 04:10:34;;;;;;;3.78;3.10;;;-0.40;99.90;;;;;;4780377;30;20051;-66
2022/12/30 04:13:02;;;;;;;4.68;3.08;;;-0.50;99.90;;;;;;4780944;29;20510;-66
2022/12/30 04:15:29;;;;;;;6.88;3.38;;;-0.40;99.90;;;;;;4783490;29;20432;-67
2022/12/30 04:17:57;;;;;;;3.63;3.03;;;-0.40;99.90;;;;;;4777966;29;20524;-68
2022/12/30 04:20:24;;;;;;;3.95;3.00;;;-0.40;99.90;;;;;;4780542;29;20127;-67
2022/12/30 04:22:52;;;;;;;5.35;3.78;;;-0.40;99.90;;;;;;4782547;30;20159;-66
2022/12/30 04:25:21;;;;;;;5.55;3.10;;;-0.40;99.90;;;;;;4783104;29;20150;-67
2022/12/30 04:27:48;;;;;;;5.57;3.15;;;-0.40;99.90;;;;;;4785012;29;20063;-66
2022/12/30 04:30:16;;;;;;;3.67;3.35;;;-0.40;99.90;;;;;;4783047;29;20059;-68
2022/12/30 04:32:43;;;;;;;4.68;3.38;;;-0.40;99.90;;;;;;4778247;30;20062;-68
2022/12/30 04:35:11;;;;;;;5.30;3.78;;;-0.30;99.90;;;;;;4780479;30;20078;-69
2022/12/30 04:37:38;;;;;;;5.25;3.28;;;-0.30;99.90;;;;;;4796297;29;20075;-68
2022/12/30 04:40:08;;;;;;;4.68;3.72;;;-0.30;99.90;;;;;;4781373;30;20499;-68
2022/12/30 04:42:37;;;;;;;3.72;3.35;;;-0.30;99.90;;;;;;4781396;29;20062;-67
2022/12/30 04:45:05;;;;;;;6.70;3.70;;;-0.30;99.90;;;;;;4778767;29;20086;-68
2022/12/30 04:47:33;;;;;;;5.97;3.85;;;-0.30;99.90;;;;;;4794781;29;20063;-67
2022/12/30 04:50:01;;;;;;;5.22;4.00;;;-0.20;99.90;;;;;;4781848;29;20524;-67
2022/12/30 04:52:30;;;;;;;4.70;3.70;;;-0.20;99.90;;;;;;4783037;29;20093;-67
2022/12/30 04:54:58;;;;;;;5.18;3.90;;;-0.30;99.90;;;;;;4783986;30;20398;-66
2022/12/30 04:57:25;;;;;;;4.65;3.63;;;-0.20;99.90;;;;;;4781758;29;20112;-66
2022/12/30 04:59:54;;;;;;;4.32;3.83;;;-0.30;99.90;;;;;;4782183;29;20083;-69
2022/12/30 05:02:22;;;;;;;5.90;4.00;;;-0.30;99.90;;;;;;4782607;29;20489;-67
2022/12/30 05:04:52;;;;;;;6.10;4.68;;;-0.20;99.90;;;;;;4788297;30;20067;-67
2022/12/30 05:07:20;;;;;;;5.03;4.22;;;-0.20;99.90;;;;;;4783646;29;20055;-67
2022/12/30 05:09:47;;;;;;;4.55;4.05;;;-0.20;99.90;;;;;;4786289;29;20051;-66
2022/12/30 05:12:15;;;;;;;5.72;4.28;;;-0.20;99.90;;;;;;4786178;29;20142;-68
2022/12/30 05:14:42;;;;;;;6.65;4.15;;;-0.20;99.90;;;;;;4786443;29;20051;-68
2022/12/30 05:17:11;;;;;;;7.57;4.40;;;-0.20;99.90;;;;;;4786451;29;20059;-68
2022/12/30 05:19:39;;;;;;;5.65;4.03;;;-0.20;99.90;;;;;;4785718;29;20138;-68
2022/12/30 05:22:06;;;;;;;5.63;4.20;;;-0.20;99.90;;;;;;4787936;29;20062;-66
2022/12/30 05:27:19;;;;;;;6.18;4.60;;;-0.10;99.90;;;;;;4782012;30;20047;-67
2022/12/30 05:29:47;;;;;;;6.82;4.47;;;-0.10;99.90;;;;;;4784657;29;20057;-69
2022/12/30 05:32:16;;;;;;;4.50;3.88;;;-0.10;99.90;;;;;;4789302;29;20086;-67
2022/12/30 05:34:43;;;;;;;5.68;4.45;;;-0.10;99.90;;;;;;4782052;29;20055;-68
2022/12/30 05:37:11;;;;;;;7.47;4.32;;;-0.10;99.90;;;;;;4786884;29;20055;-67
2022/12/30 05:39:38;;;;;;;5.93;4.28;;;-0.10;99.90;;;;;;4786151;30;20587;-68
2022/12/30 05:42:06;;;;;;;6.00;4.93;;;-0.10;99.90;;;;;;4786836;29;20074;-67
2022/12/30 05:44:34;;;;;;;6.65;4.97;;;-0.10;99.90;;;;;;4785258;29;20112;-67
2022/12/30 05:47:01;;;;;;;5.43;4.47;;;-0.10;99.90;;;;;;4782434;30;20063;-67
2022/12/30 05:49:30;;;;;;;6.93;4.50;;;-0.10;99.90;;;;;;4781963;30;20551;-66
2022/12/30 05:51:58;;;;;;;4.97;4.35;;;-0.10;99.90;;;;;;4784758;30;20531;-68
2022/12/30 05:54:25;;;;;;;5.80;4.05;;;0.00;99.90;;;;;;4785237;29;20066;-68
2022/12/30 05:56:53;;;;;;;5.25;4.68;;;0.00;99.90;;;;;;4786646;29;20061;-68
2022/12/30 05:59:20;;;;;;;6.78;4.35;;;0.00;99.90;;;;;;4781302;29;20071;-67
2022/12/30 06:01:47;;;;;;;5.25;4.47;;;0.00;99.90;;;;;;4786411;29;20116;-67
2022/12/30 06:04:17;;;;;;;6.63;4.75;;;0.00;99.90;;;;;;4786467;29;20417;-68
2022/12/30 06:06:46;;;;;;;4.85;4.15;;;0.00;99.90;;;;;;4788643;29;20063;-68
2022/12/30 06:09:13;;;;;;;4.80;4.32;;;0.00;99.90;;;;;;4787258;30;20112;-67
2022/12/30 06:11:41;;;;;;;5.55;4.07;;;0.00;99.90;;;;;;4796317;29;20098;-69
2022/12/30 06:14:10;;;;;;;6.90;4.93;;;0.10;99.90;;;;;;4767084;30;20079;-70
2022/12/30 06:16:38;;;;;;;6.93;4.32;;;0.10;99.90;;;;;;4772571;30;20154;-68
2022/12/30 06:19:06;;;;;;;6.50;4.82;;;0.10;99.90;;;;;;4787757;29;20052;-68
2022/12/30 06:21:33;;;;;;;5.85;4.72;;;0.10;99.90;;;;;;4785507;29;20059;-69
2022/12/30 06:24:03;;;;;;;5.53;4.80;;;0.10;99.90;;;;;;4782080;29;20047;-69
2022/12/30 06:26:30;;;;;;;7.50;5.15;;;0.10;99.90;;;;;;4779539;30;20090;-76
2022/12/30 06:28:58;;;;;;;7.03;5.40;;;0.10;99.90;;;;;;4786701;29;20055;-74
2022/12/30 06:31:26;;;;;;;6.70;5.28;;;0.10;99.90;;;;;;4787342;29;20063;-75
2022/12/30 06:33:53;;;;;;;7.15;5.00;;;0.10;99.90;;;;;;4785783;29;20047;-74
2022/12/30 06:36:21;;;;;;;6.50;4.93;;;0.10;99.90;;;;;;4783896;29;20047;-75
2022/12/30 06:38:49;;;;;;;5.97;5.03;;;0.20;99.90;;;;;;4784871;29;20051;-76
2022/12/30 06:41:18;;;;;;;7.43;5.60;;;0.20;99.90;;;;;;4787124;29;20093;-76
2022/12/30 06:43:47;;;;;;;5.60;5.05;;;0.30;99.90;;;;;;4784635;29;20067;-77
2022/12/30 06:46:15;;;;;;;5.50;4.88;;;0.30;99.90;;;;;;4769694;30;20154;-78
2022/12/30 06:48:43;;;;;;;9.00;5.57;;;0.30;99.90;;;;;;4776298;30;20120;-70
2022/12/30 06:51:10;;;;;;;7.15;5.82;;;0.30;99.90;;;;;;4784303;30;20104;-72
2022/12/30 06:53:38;;;;;;;9.48;5.32;;;0.30;99.90;;;;;;4784115;29;20073;-76
2022/12/30 06:56:06;;;;;;;7.90;5.80;;;0.30;99.90;;;;;;4775440;29;20062;-76
2022/12/30 06:58:36;;;;;;;11.05;6.32;;;0.30;99.90;;;;;;4775811;29;20087;-73
2022/12/30 07:01:03;;;;;;;7.93;5.32;;;0.30;99.90;;;;;;4785496;29;20412;-74
2022/12/30 07:03:31;;;;;;;8.73;5.60;;;0.40;99.90;;;;;;4785281;29;20055;-72
2022/12/30 07:05:58;;;;;;;9.07;5.55;;;0.40;99.90;;;;;;4781014;30;20063;-73
2022/12/30 07:08:26;;;;;;;7.50;5.97;;;0.40;99.90;;;;;;4794127;29;20048;-74
2022/12/30 07:10:54;;;;;;;13.57;6.18;;;0.40;99.90;;;;;;4766468;30;20052;-72
2022/12/30 07:13:21;;;;;;;9.77;5.78;;;0.40;99.90;;;;;;4775253;29;20130;-73
2022/12/30 07:15:50;;;;;;;10.20;5.53;;;0.40;99.90;;;;;;4770925;30;20166;-72
2022/12/30 07:18:17;;;;;;;8.45;5.82;;;0.40;99.90;;;;;;4784076;29;20421;-73
2022/12/30 07:20:45;;;;;;;7.15;5.63;;;0.50;99.90;;;;;;4784247;29;20055;-73
2022/12/30 07:23:13;;;;;;;6.60;5.35;;;0.50;99.90;;;;;;4782164;29;20465;-75
2022/12/30 07:25:41;;;;;;;10.10;6.53;;;0.60;99.90;;;;;;4781835;29;20086;-75
2022/12/30 07:28:09;;;;;;;10.55;6.35;;;0.60;99.90;;;;;;4783934;29;20146;-75
2022/12/30 07:30:37;;;;;;;10.75;6.53;;;0.60;99.90;;;;;;4783781;29;20446;-74
2022/12/30 07:33:05;;;;;;;12.15;6.50;;;0.60;99.90;;;;;;4783513;29;20055;-75
2022/12/30 07:35:33;;;;;;;9.95;6.50;;;0.60;99.90;;;;;;4793795;29;20551;-74
2022/12/30 07:38:00;;;;;;;10.35;6.57;;;0.60;99.90;;;;;;4780357;30;20055;-74
2022/12/30 07:40:28;;;;;;;12.35;6.78;;;0.60;99.90;;;;;;4785818;29;20059;-75
2022/12/30 07:42:55;;;;;;;8.35;6.10;;;0.70;99.90;;;;;;4780859;30;20104;-72
2022/12/30 07:45:24;;;;;;;10.75;5.93;;;0.60;99.90;;;;;;4777758;29;20075;-73
2022/12/30 07:47:52;;;;;;;11.85;7.28;;;0.60;99.90;;;;;;4788974;29;20059;-73
2022/12/30 07:50:21;;;;;;;11.52;5.88;;;0.60;99.90;;;;;;4780354;30;20100;-73
2022/12/30 07:52:48;;;;;;;8.27;6.07;;;0.60;99.90;;;;;;4780835;29;20059;-72
2022/12/30 07:55:16;;;;;;;8.20;5.65;;;0.60;99.90;;;;;;4777105;29;20079;-71
2022/12/30 07:57:44;;;;;;;10.02;6.65;;;0.60;99.90;;;;;;4767411;29;20047;-72
2022/12/30 08:00:13;;;;;;;9.40;5.75;;;0.60;99.90;;;;;;4779842;29;20588;-73
2022/12/30 08:02:41;;;;;;;8.30;6.63;;;0.70;99.90;;;;;;4782847;29;20123;-73
2022/12/30 08:05:09;;;;;;;11.38;6.55;;;0.70;99.90;;;;;;4781134;29;20055;-72
2022/12/30 08:07:38;;;;;;;11.35;6.85;;;0.70;99.90;;;;;;4785279;29;20413;-75
2022/12/30 08:10:07;;;;;;;10.85;6.78;;;0.70;99.90;;;;;;4786555;29;20069;-74
2022/12/30 08:12:35;;;;;;;13.48;7.47;;;0.70;99.90;;;;;;4783693;30;20055;-73
2022/12/30 08:15:03;;;;;;;14.68;6.60;;;0.80;99.90;;;;;;4779929;29;20071;-69
2022/12/30 08:17:32;;;;;;;12.02;7.10;;;0.80;99.90;;;;;;4769663;30;20553;-73
2022/12/30 08:20:00;;;;;;;9.40;6.85;;;0.80;99.90;;;;;;4784307;29;20432;-74
2022/12/30 08:22:28;;;;;;;11.23;7.57;;;0.80;99.90;;;;;;4779708;29;20525;-71
2022/12/30 08:24:57;;;;;;;14.52;8.07;;;0.80;99.90;;;;;;4774039;30;20463;-72
2022/12/30 08:27:34;;;;;;;14.52;7.38;;;0.80;99.90;;;;;;4778670;30;20505;-70
2022/12/30 08:30:07;;;;;;;10.18;6.90;;;0.90;99.90;;;;;;4779112;30;20182;-73
2022/12/30 08:32:36;;;;;;;11.90;7.28;;;0.90;99.90;;;;;;4779173;29;20054;-73
2022/12/30 08:35:05;;;;;;;16.83;8.25;;;1.00;99.90;;;;;;4776125;29;20051;-70
2022/12/30 08:37:34;;;;;;;19.77;8.43;;;1.00;99.90;;;;;;4786215;29;20063;-74
2022/12/30 08:40:04;;;;;;;12.80;7.80;;;1.10;99.90;;;;;;4774048;29;20058;-73
2022/12/30 08:42:32;;;;;;;14.88;8.50;;;1.10;99.90;;;;;;4774327;29;20071;-74
2022/12/30 08:44:59;;;;;;;12.55;7.88;;;1.10;99.90;;;;;;4778634;29;20481;-74
2022/12/30 08:47:27;;;;;;;12.15;8.13;;;1.10;99.90;;;;;;4778663;29;20104;-74
2022/12/30 08:49:55;;;;;;;16.23;7.95;;;1.10;99.90;;;;;;4781510;29;20134;-75
2022/12/30 08:52:24;;;;;;;14.35;8.55;;;1.20;99.90;;;;;;4773468;29;20151;-73
2022/12/30 08:54:51;;;;;;;13.07;8.57;;;1.20;99.90;;;;;;4777459;29;20058;-70
2022/12/30 08:57:20;;;;;;;15.02;8.10;;;1.20;99.90;;;;;;4777100;29;20055;-71
2022/12/30 08:59:48;;;;;;;12.85;8.55;;;1.20;99.90;;;;;;4776389;29;20056;-71
2022/12/30 09:02:15;;;;;;;12.77;7.78;;;1.20;99.90;;;;;;4793362;29;20424;-70
2022/12/30 09:04:43;;;;;;;12.90;8.18;;;1.20;99.90;;;;;;4775369;29;20434;-70
2022/12/30 09:07:11;;;;;;;13.23;6.95;;;1.30;99.90;;;;;;4773646;30;20113;-70
2022/12/30 09:09:40;;;;;;;11.50;7.85;;;1.30;99.90;;;;;;4779880;29;20051;-70
2022/12/30 09:12:08;;;;;;;11.70;6.93;;;1.20;99.90;;;;;;4776653;30;20051;-73
2022/12/30 09:14:37;;;;;;;12.15;7.75;;;1.20;99.90;;;;;;4778546;29;20059;-73
2022/12/30 09:17:07;;;;;;;13.38;6.70;;;1.20;99.90;;;;;;4794128;29;20142;-74
2022/12/30 09:19:35;;;;;;;11.77;6.97;;;1.30;99.90;;;;;;4778543;30;20124;-73
2022/12/30 09:22:03;;;;;;;10.90;7.25;;;1.30;99.90;;;;;;4775496;29;20044;-74
2022/12/30 09:24:30;;;;;;;10.75;6.75;;;1.30;99.90;;;;;;4781924;29;20055;-74
2022/12/30 09:26:58;;;;;;;9.27;6.93;;;1.30;99.90;;;;;;4775435;30;20142;-74
2022/12/30 09:29:25;;;;;;;12.93;7.38;;;1.30;99.90;;;;;;4774534;29;20051;-75
2022/12/30 09:31:54;;;;;;;11.45;7.40;;;1.40;99.90;;;;;;4772672;29;20058;-76
2022/12/30 09:34:22;;;;;;;12.95;7.07;;;1.40;99.90;;;;;;4783386;29;20055;-75
2022/12/30 09:36:49;;;;;;;12.93;7.03;;;1.40;99.90;;;;;;4777105;29;20075;-73
2022/12/30 09:39:17;;;;;;;10.52;6.68;;;1.40;99.90;;;;;;4775314;29;20075;-73
2022/12/30 09:44:57;;;;;;;9.15;6.53;;;1.40;99.90;;;;;;4778771;29;20576;-74
2022/12/30 09:47:31;;;;;;;8.70;6.70;;;1.50;99.90;;;;;;4780083;29;20512;-74
2022/12/30 09:50:05;;;;;;;10.93;6.25;;;1.50;99.90;;;;;;4777300;30;20055;-71
2022/12/30 09:52:39;;;;;;;12.20;7.80;;;1.50;99.90;;;;;;4783874;30;20112;-72
2022/12/30 09:55:17;;;;;;;15.35;7.60;;;1.60;99.90;;;;;;4770918;29;20076;-71
2022/12/30 09:57:54;;;;;;;12.70;6.85;;;1.60;99.90;;;;;;4754350;30;20067;-72
2022/12/30 10:00:24;;;;;;;9.65;6.00;;;1.60;99.90;;;;;;4781834;30;20117;-74
2022/12/30 10:03:08;;;;;;;8.88;6.38;;;1.60;99.90;;;;;;4771729;29;20064;-75
2022/12/30 10:06:07;;;;;;;10.48;6.22;;;1.70;99.90;;;;;;4775065;30;20063;-72
2022/12/30 10:09:03;;;;;;;10.48;5.97;;;1.80;99.90;;;;;;4776706;30;20498;-70
2022/12/30 10:11:48;;;;;;;8.95;6.57;;;1.80;99.90;;;;;;4782346;29;20052;-73
2022/12/30 10:14:27;;;;;;;10.70;6.07;;;1.80;99.90;;;;;;4776669;30;20549;-74
2022/12/30 10:17:19;;;;;;;10.88;6.85;;;1.80;99.90;;;;;;4779373;29;20122;-73
2022/12/30 10:19:57;;;;;;;9.40;6.10;;;1.90;99.90;;;;;;4785766;29;20150;-74
2022/12/30 10:22:35;;;;;;;9.45;5.25;;;1.90;99.90;;;;;;4795887;29;20051;-74
2022/12/30 10:25:23;;;;;;;11.40;6.20;;;1.90;99.90;;;;;;4799969;29;20416;-74
2022/12/30 10:27:56;;;;;;;7.63;5.18;;;1.90;99.90;;;;;;4795893;29;20082;-73
2022/12/30 10:30:28;;;;;;;13.63;6.03;;;1.90;99.90;;;;;;4791869;29;20516;-72
2022/12/30 10:33:02;;;;;;;10.18;6.65;;;1.90;99.90;;;;;;4791805;29;20047;-76
2022/12/30 10:35:33;;;;;;;8.50;4.90;;;1.90;99.90;;;;;;4795803;29;20504;-76
2022/12/30 10:38:10;;;;;;;11.25;5.47;;;1.90;99.90;;;;;;4796394;29;20082;-74
2022/12/30 10:40:50;;;;;;;6.68;4.80;;;1.90;99.90;;;;;;4791144;29;20448;-74
2022/12/30 10:43:34;;;;;;;5.85;4.25;;;2.00;99.90;;;;;;4797035;29;20059;-74
2022/12/30 10:46:23;;;;;;;11.90;5.05;;;2.00;99.90;;;;;;4801059;29;20564;-75
2022/12/30 10:49:17;;;;;;;7.80;5.15;;;1.90;99.90;;;;;;4789005;29;20110;-74
2022/12/30 10:51:49;;;;;;;8.18;4.65;;;1.90;99.90;;;;;;4789190;29;20055;-75
2022/12/30 10:54:16;;;;;;;5.10;4.20;;;1.90;99.90;;;;;;4805121;29;20055;-76
2022/12/30 10:56:45;;;;;;;5.07;3.95;;;1.90;99.90;;;;;;4795834;29;20143;-74
2022/12/30 10:59:18;;;;;;;8.52;4.47;;;1.90;99.90;;;;;;4787153;29;20051;-72
2022/12/30 11:01:47;;;;;;;;;;;1.90;99.90;;;;;;4786801;29;20145;-74
2022/12/30 11:04:37;;;;;;;9.80;4.82;;;2.00;99.90;;;;;;4797487;29;19929;-72
2022/12/30 11:07:08;;;;;;;7.10;4.82;;;1.90;99.90;;;;;;4793273;29;20056;-72
2022/12/30 11:09:36;;;;;;;13.43;6.57;;;1.90;99.90;;;;;;4796480;29;20453;-73
2022/12/30 11:15:00;;;;;;;14.60;6.75;;;2.00;99.90;;;;;;4797744;29;20047;-75
2022/12/30 11:17:35;;;;;;;11.60;5.70;;;1.90;99.90;;;;;;4792191;29;20057;-77
2022/12/30 11:20:23;;;;;;;9.02;5.75;;;1.90;99.90;;;;;;4789147;29;21428;-75
2022/12/30 11:22:55;;;;;;;14.23;6.05;;;1.90;99.90;;;;;;4796026;29;20058;-73
2022/12/30 11:25:27;;;;;;;12.15;5.65;;;2.00;99.90;;;;;;4790934;29;20052;-74
2022/12/30 11:27:57;;;;;;;8.85;4.93;;;2.00;99.90;;;;;;4787969;29;20083;-74
2022/12/30 11:30:29;;;;;;;10.27;5.07;;;2.00;99.90;;;;;;4789283;29;20055;-74
2022/12/30 11:33:00;;;;;;;9.40;5.00;;;2.00;99.90;;;;;;4791831;29;20120;-74
2022/12/30 11:35:39;;;;;;;9.68;4.72;;;2.10;99.90;;;;;;4790807;29;20112;-71
2022/12/30 11:38:31;;;;;;;10.10;3.92;;;2.10;99.90;;;;;;4783756;29;20539;-72
2022/12/30 11:41:19;;;;;;;5.40;3.50;;;2.20;99.90;;;;;;4788371;29;20083;-72
2022/12/30 11:43:49;;;;;;;6.75;3.70;;;2.20;99.90;;;;;;4772680;29;20055;-73
2022/12/30 11:46:21;;;;;;;5.13;3.40;;;2.30;99.90;;;;;;4792069;29;20062;-72
2022/12/30 11:48:52;;;;;;;5.93;3.83;;;2.30;99.90;;;;;;4792295;29;20047;-72
2022/12/30 11:51:23;;;;;;;4.88;3.72;;;2.30;99.90;;;;;;4792687;29;20600;-71
2022/12/30 11:54:06;;;;;;;9.07;4.18;;;2.40;99.90;;;;;;4794104;29;20047;-70
2022/12/30 11:56:34;;;;;;;5.97;4.18;;;2.40;99.90;;;;;;4789921;29;20059;-71
2022/12/30 11:59:10;;;;;;;7.75;4.68;;;2.40;99.90;;;;;;4794013;29;20401;-72
2022/12/30 12:01:47;;;;;;;12.75;4.35;;;2.50;99.90;;;;;;4793017;29;20086;-71
2022/12/30 12:04:36;;;;;;;6.28;3.92;;;2.50;99.90;;;;;;4795865;29;20507;-71
2022/12/30 12:07:06;;;;;;;10.52;3.85;;;2.50;99.90;;;;;;4791048;29;20099;-72
2022/12/30 12:09:42;;;;;;;5.28;3.72;;;2.50;99.90;;;;;;4793374;29;20082;-74
2022/12/30 12:12:16;;;;;;;12.75;4.45;;;2.50;99.90;;;;;;4792968;29;20447;-72
2022/12/30 12:15:03;;;;;;;5.88;3.72;;;2.60;99.90;;;;;;4794385;29;20605;-73
2022/12/30 12:17:45;;;;;;;7.50;4.65;;;2.60;99.90;;;;;;4796103;29;20532;-71
2022/12/30 12:20:22;;;;;;;4.28;3.72;;;2.70;99.90;;;;;;4798641;29;20063;-73
2022/12/30 12:23:18;;;;;;;5.72;3.72;;;2.70;99.90;;;;;;4796102;29;20533;-74
2022/12/30 12:26:04;;;;;;;5.43;3.63;;;2.70;99.90;;;;;;4789418;29;20047;-74
2022/12/30 12:28:33;;;;;;;5.95;3.55;;;2.70;99.90;;;;;;4796322;29;20516;-75
2022/12/30 12:31:14;;;;;;;6.45;3.38;;;2.60;99.90;;;;;;4793737;29;20072;-74
2022/12/30 12:33:46;;;;;;;7.82;3.70;;;2.60;99.90;;;;;;4790039;29;20055;-74
2022/12/30 12:36:28;;;;;;;5.20;3.67;;;2.60;99.90;;;;;;4796744;29;20505;-75
2022/12/30 12:39:03;;;;;;;8.50;4.03;;;2.60;99.90;;;;;;4794606;29;20043;-72
2022/12/30 12:41:51;;;;;;;8.13;3.80;;;2.60;99.90;;;;;;4786080;29;21490;-77
2022/12/30 12:44:43;;;;;;;4.38;3.97;;;2.60;99.90;;;;;;4797588;29;20050;-76
2022/12/30 12:47:39;;;;;;;7.35;4.90;;;2.70;99.90;;;;;;4794099;29;20051;-75
2022/12/30 12:50:28;;;;;;;8.25;4.50;;;2.70;99.90;;;;;;4792737;29;20054;-75
2022/12/30 12:53:12;;;;;;;6.15;4.13;;;2.70;99.90;;;;;;4794400;29;20513;-75
2022/12/30 12:56:00;;;;;;;;;;;2.80;99.90;;;;;;4790242;29;20059;-75
2022/12/30 12:58:40;;;;;;;5.53;4.53;;;2.80;99.90;;;;;;4790015;29;19929;-75
2022/12/30 13:01:17;;;;;;;9.07;4.50;;;2.90;99.90;;;;;;4792615;29;20047;-75
2022/12/30 13:03:59;;;;;;;9.77;5.45;;;2.90;99.90;;;;;;4793914;29;20436;-74
2022/12/30 13:06:38;;;;;;;9.38;4.45;;;2.90;99.90;;;;;;4794051;29;20055;-76
2022/12/30 13:09:45;;;;;;;7.88;4.40;;;2.90;99.90;;;;;;4790084;29;20082;-74
2022/12/30 13:12:19;;;;;;;6.78;4.90;;;3.00;99.90;;;;;;4794510;29;20420;-75
2022/12/30 13:14:54;;;;;;;5.72;5.03;;;3.00;99.90;;;;;;4796936;29;20134;-75
2022/12/30 13:17:30;;;;;;;6.97;4.60;;;3.10;99.90;;;;;;4789846;29;20131;-74
2022/12/30 13:20:04;;;;;;;6.90;5.53;;;3.10;99.90;;;;;;4792633;29;20050;-73
2022/12/30 13:22:39;;;;;;;6.78;5.38;;;3.10;99.90;;;;;;4787576;29;20046;-72
2022/12/30 13:25:17;;;;;;;9.25;6.00;;;3.20;99.90;;;;;;4798599;29;20504;-71
2022/12/30 13:27:46;;;;;;;7.40;5.53;;;3.20;99.90;;;;;;4794047;29;20055;-77
2022/12/30 13:30:19;;;;;;;10.95;6.95;;;3.20;99.90;;;;;;4794109;29;20482;-75
2022/12/30 13:32:52;;;;;;;;;;;3.20;99.90;;;;;;4797470;29;20103;-75
2022/12/30 13:35:48;;;;;;;9.65;6.65;;;3.20;99.90;;;;;;4792849;29;19936;-72
2022/12/30 13:38:32;;;;;;;11.55;6.55;;;3.30;99.90;;;;;;4796717;29;20563;-73
2022/12/30 13:41:33;;;;;;;8.65;6.03;;;3.30;99.90;;;;;;4799456;29;20050;-74
2022/12/30 13:44:04;;;;;;;11.80;7.00;;;3.30;99.90;;;;;;4792775;29;20054;-77
2022/12/30 13:46:36;;;;;;;12.90;6.80;;;3.30;99.90;;;;;;4774284;29;20051;-75
2022/12/30 13:49:08;;;;;;;11.02;7.03;;;3.30;99.90;;;;;;4793229;29;20172;-76
2022/12/30 13:51:35;;;;;;;10.35;6.63;;;3.40;99.90;;;;;;4797693;29;20165;-75
2022/12/30 13:54:15;;;;;;;11.50;7.22;;;3.40;99.90;;;;;;4787408;29;20086;-73
2022/12/30 13:56:46;;;;;;;12.93;8.25;;;3.40;99.90;;;;;;4790391;29;20124;-77
2022/12/30 13:59:26;;;;;;;12.35;7.97;;;3.40;99.90;;;;;;4784156;29;20051;-76
2022/12/30 14:02:48;;;;;;;17.80;8.82;;;3.50;99.90;;;;;;4778322;29;20063;-74
2022/12/30 14:05:56;;;;;;;16.65;11.07;;;3.50;99.90;;;;;;4770577;30;20464;-75
2022/12/30 14:08:53;;;;;;;17.75;11.43;;;3.60;99.90;;;;;;4778391;29;20062;-74
2022/12/30 14:11:22;;;;;;;18.63;10.27;;;3.60;99.90;;;;;;4779392;29;20167;-74
2022/12/30 14:14:20;;;;;;;20.98;12.43;;;3.60;99.90;;;;;;4793173;29;20150;-74